createdAt,value
2023-03-10T00:02:46.549Z,9.90
2023-03-10T00:05:32.057Z,10.40
2023-03-10T00:08:17.593Z,10.10
2023-03-10T00:11:03.093Z,10.20
2023-03-10T00:13:48.757Z,10.30
2023-03-10T00:16:34.280Z,11.90
2023-03-10T00:19:19.557Z,10.40
2023-03-10T00:22:05.226Z,10.50
2023-03-10T00:24:50.504Z,10.40
2023-03-10T00:27:36.254Z,10.40
2023-03-10T00:30:21.501Z,12.40
2023-03-10T00:33:07.124Z,10.40
2023-03-10T00:36:12.418Z,12.50
2023-03-10T00:39:01.127Z,10.20
2023-03-10T00:41:46.593Z,9.90
2023-03-10T00:44:32.227Z,9.70
2023-03-10T00:47:17.576Z,9.70
2023-03-10T00:50:03.290Z,9.60
2023-03-10T00:52:51.217Z,9.80
2023-03-10T00:55:36.455Z,9.50
2023-03-10T00:58:22.092Z,9.50
2023-03-10T01:01:29.284Z,9.30
2023-03-10T01:04:18.850Z,9.20
2023-03-10T01:07:04.626Z,9.20
2023-03-10T01:09:49.979Z,9.20
2023-03-10T01:12:35.360Z,9.10
2023-03-10T01:15:20.886Z,9.00
2023-03-10T01:18:07.184Z,9.00
2023-03-10T01:20:52.380Z,9.00
2023-03-10T01:23:37.974Z,9.00
2023-03-10T01:26:23.563Z,9.00
2023-03-10T01:29:08.900Z,9.00
2023-03-10T01:31:54.508Z,9.20
2023-03-10T01:34:40.049Z,9.10
2023-03-10T01:37:25.868Z,9.00
2023-03-10T01:40:18.701Z,9.10
2023-03-10T01:43:27.022Z,9.30
2023-03-10T01:46:40.122Z,9.10
2023-03-10T01:49:40.104Z,9.00
2023-03-10T01:52:29.367Z,9.10
2023-03-10T01:55:21.781Z,8.90
2023-03-10T01:58:08.802Z,9.10
2023-03-10T02:00:54.916Z,9.00
2023-03-10T02:04:03.310Z,9.10
2023-03-10T02:06:51.138Z,9.10
2023-03-10T02:09:40.931Z,9.00
2023-03-10T02:12:26.503Z,9.10
2023-03-10T02:15:12.825Z,9.20
2023-03-10T02:17:59.254Z,9.20
2023-03-10T02:20:53.884Z,9.20
2023-03-10T02:24:01.693Z,9.00
2023-03-10T02:27:22.931Z,9.00
2023-03-10T02:30:10.100Z,9.10
2023-03-10T02:33:00.129Z,9.10
2023-03-10T02:35:46.131Z,9.00
2023-03-10T02:38:31.550Z,9.10
2023-03-10T02:41:21.171Z,9.00
2023-03-10T02:44:10.524Z,9.10
2023-03-10T02:46:56.302Z,9.00
2023-03-10T02:49:41.806Z,8.90
2023-03-10T02:52:52.920Z,8.90
2023-03-10T02:55:38.416Z,8.80
2023-03-10T02:58:25.815Z,8.80
2023-03-10T03:01:11.086Z,8.80
2023-03-10T03:03:57.198Z,8.80
2023-03-10T03:06:42.830Z,8.70
2023-03-10T03:09:28.205Z,8.60
2023-03-10T03:12:13.726Z,8.60
2023-03-10T03:14:59.377Z,8.70
2023-03-10T03:17:45.204Z,8.60
2023-03-10T03:20:31.813Z,8.80
2023-03-10T03:23:17.276Z,8.80
2023-03-10T03:26:02.932Z,10.10
2023-03-10T03:28:49.088Z,8.80
2023-03-10T03:31:34.618Z,8.90
2023-03-10T03:34:20.892Z,8.90
2023-03-10T03:37:06.044Z,8.90
2023-03-10T03:39:51.698Z,9.00
2023-03-10T03:42:37.192Z,9.80
2023-03-10T03:45:25.718Z,9.10
2023-03-10T03:48:13.893Z,9.90
2023-03-10T03:50:59.419Z,9.10
2023-03-10T03:53:44.816Z,9.10
2023-03-10T03:56:30.348Z,9.10
2023-03-10T03:59:15.859Z,9.10
2023-03-10T04:02:01.221Z,9.50
2023-03-10T04:04:47.181Z,9.20
2023-03-10T04:07:32.623Z,9.10
2023-03-10T04:10:21.212Z,9.10
2023-03-10T04:13:06.856Z,9.10
2023-03-10T04:15:57.023Z,8.90
2023-03-10T04:18:42.546Z,8.90
2023-03-10T04:21:28.121Z,8.90
2023-03-10T04:24:13.456Z,9.30
2023-03-10T04:26:58.933Z,8.80
2023-03-10T04:29:44.630Z,10.60
2023-03-10T04:32:30.118Z,8.90
2023-03-10T04:35:15.568Z,8.90
2023-03-10T04:38:00.808Z,9.10
2023-03-10T04:40:52.711Z,8.90
2023-03-10T04:43:39.125Z,8.90
2023-03-10T04:46:25.564Z,8.90
2023-03-10T04:49:11.199Z,8.90
2023-03-10T04:51:56.674Z,9.00
2023-03-10T04:54:42.024Z,9.00
2023-03-10T04:57:27.313Z,9.40
2023-03-10T05:00:13.286Z,9.20
2023-03-10T05:02:58.739Z,9.30
2023-03-10T05:05:44.635Z,9.30
2023-03-10T05:08:29.896Z,9.30
2023-03-10T05:11:15.676Z,9.40
2023-03-10T05:14:01.794Z,9.30
2023-03-10T05:16:48.407Z,9.30
2023-03-10T05:19:35.338Z,9.20
2023-03-10T05:22:20.958Z,9.30
2023-03-10T05:25:07.940Z,9.20
2023-03-10T05:27:53.330Z,9.10
2023-03-10T05:30:38.717Z,9.10
2023-03-10T05:33:24.363Z,9.10
2023-03-10T05:36:12.862Z,8.90
2023-03-10T05:38:58.166Z,8.90
2023-03-10T05:41:43.865Z,8.90
2023-03-10T05:44:29.197Z,8.60
2023-03-10T05:47:18.995Z,8.70
2023-03-10T05:50:05.345Z,8.70
2023-03-10T05:52:50.896Z,8.80
2023-03-10T05:55:37.237Z,9.20
2023-03-10T05:58:24.173Z,8.40
2023-03-10T06:01:10.934Z,8.20
2023-03-10T06:03:56.665Z,8.20
2023-03-10T06:06:42.230Z,8.00
2023-03-10T06:09:30.376Z,7.80
2023-03-10T06:12:15.794Z,7.60
2023-03-10T06:15:01.554Z,8.60
2023-03-10T06:17:46.972Z,7.90
2023-03-10T06:20:32.519Z,7.80
2023-03-10T06:23:18.451Z,7.80
2023-03-10T06:26:14.384Z,7.90
2023-03-10T06:29:00.419Z,7.80
2023-03-10T06:31:45.797Z,7.80
2023-03-10T06:34:31.253Z,7.80
2023-03-10T06:37:17.062Z,7.90
2023-03-10T06:40:02.352Z,8.30
2023-03-10T06:42:47.906Z,7.80
2023-03-10T06:45:33.426Z,7.90
2023-03-10T06:48:19.179Z,8.00
2023-03-10T06:51:10.258Z,6.50
2023-03-10T06:53:57.622Z,5.00
2023-03-10T06:56:43.117Z,5.00
2023-03-10T06:59:32.572Z,5.10
2023-03-10T07:02:19.877Z,5.40
2023-03-10T07:05:07.486Z,5.60
2023-03-10T07:07:54.492Z,5.70
2023-03-10T07:10:39.884Z,5.90
2023-03-10T07:13:25.295Z,5.90
2023-03-10T07:16:10.901Z,6.10
2023-03-10T07:18:56.517Z,6.20
2023-03-10T07:21:42.177Z,6.40
2023-03-10T07:24:27.772Z,6.40
2023-03-10T07:27:13.606Z,6.60
2023-03-10T07:29:59.348Z,6.80
2023-03-10T07:32:44.913Z,6.80
2023-03-10T07:35:30.543Z,6.60
2023-03-10T07:38:16.158Z,6.80
2023-03-10T07:41:02.196Z,7.10
2023-03-10T07:43:50.897Z,7.20
2023-03-10T07:46:36.504Z,7.40
2023-03-10T07:49:22.402Z,7.60
2023-03-10T07:52:07.864Z,7.60
2023-03-10T07:54:53.296Z,8.00
2023-03-10T07:57:39.032Z,7.70
2023-03-10T08:00:24.408Z,7.80
2023-03-10T08:03:09.869Z,8.00
2023-03-10T08:05:55.869Z,7.90
2023-03-10T08:08:41.274Z,8.70
2023-03-10T08:11:27.287Z,8.40
2023-03-10T08:14:13.204Z,8.60
2023-03-10T08:16:58.738Z,8.50
2023-03-10T08:19:44.518Z,8.60
2023-03-10T08:22:30.100Z,8.60
2023-03-10T08:25:15.787Z,8.70
2023-03-10T08:28:01.424Z,8.70
2023-03-10T08:31:03.088Z,9.00
2023-03-10T08:33:49.524Z,10.40
2023-03-10T08:36:35.363Z,8.80
2023-03-10T08:39:20.788Z,8.70
2023-03-10T08:42:06.382Z,8.70
2023-03-10T08:44:51.756Z,8.80
2023-03-10T08:47:37.209Z,8.80
2023-03-10T08:50:22.902Z,8.70
2023-03-10T08:53:08.157Z,9.60
2023-03-10T08:55:53.491Z,8.90
2023-03-10T08:58:39.438Z,8.30
2023-03-10T09:01:28.456Z,8.20
2023-03-10T09:04:14.078Z,7.90
2023-03-10T09:06:59.411Z,7.80
2023-03-10T09:09:45.075Z,9.00
2023-03-10T09:12:35.032Z,7.70
2023-03-10T09:15:22.856Z,7.60
2023-03-10T09:18:10.041Z,7.40
2023-03-10T09:20:55.703Z,7.20
2023-03-10T09:23:43.362Z,7.00
2023-03-10T09:26:28.846Z,7.20
2023-03-10T09:29:14.509Z,7.10
2023-03-10T09:31:59.813Z,7.00
2023-03-10T09:34:45.715Z,6.90
2023-03-10T09:37:31.666Z,6.80
2023-03-10T09:40:20.180Z,6.90
2023-03-10T09:43:07.511Z,6.80
2023-03-10T09:45:55.379Z,6.70
2023-03-10T09:49:12.196Z,8.70
2023-03-10T09:51:58.602Z,6.70
2023-03-10T09:55:00.327Z,6.70
2023-03-10T09:57:52.066Z,6.80
2023-03-10T10:00:40.855Z,6.80
2023-03-10T10:03:51.813Z,7.00
2023-03-10T10:06:39.688Z,6.90
2023-03-10T10:09:32.782Z,7.40
2023-03-10T10:12:23.638Z,7.30
2023-03-10T10:15:19.412Z,7.40
2023-03-10T10:18:31.430Z,7.60
2023-03-10T10:21:28.154Z,7.70
2023-03-10T10:24:17.278Z,7.80
2023-03-10T10:27:02.760Z,8.00
2023-03-10T10:29:48.856Z,8.20
2023-03-10T10:32:34.227Z,8.40
2023-03-10T10:35:24.525Z,8.50
2023-03-10T10:38:10.010Z,8.40
2023-03-10T10:41:16.456Z,8.40
2023-03-10T10:44:14.583Z,8.50
2023-03-10T10:46:59.802Z,8.50
2023-03-10T10:49:45.521Z,8.40
2023-03-10T10:52:31.073Z,8.40
2023-03-10T10:55:29.580Z,8.40
2023-03-10T10:58:30.205Z,7.50
2023-03-10T11:01:17.373Z,8.40
2023-03-10T11:04:06.702Z,8.50
2023-03-10T11:06:53.077Z,8.50
2023-03-10T11:09:38.673Z,8.40
2023-03-10T11:12:50.645Z,10.40
2023-03-10T11:15:44.859Z,8.20
2023-03-10T11:18:34.501Z,8.40
2023-03-10T11:21:28.162Z,9.30
2023-03-10T11:24:15.639Z,8.20
2023-03-10T11:27:18.386Z,8.30
2023-03-10T11:30:23.117Z,8.20
2023-03-10T11:33:24.123Z,8.60
2023-03-10T11:36:28.352Z,8.40
2023-03-10T11:39:45.648Z,8.60
2023-03-10T11:43:01.304Z,8.80
2023-03-10T11:45:54.919Z,8.90
2023-03-10T11:48:53.082Z,9.70
2023-03-10T11:51:39.917Z,9.40
2023-03-10T11:54:28.736Z,9.30
2023-03-10T11:57:20.288Z,9.00
2023-03-10T12:00:17.200Z,9.90
2023-03-10T12:03:12.295Z,8.70
2023-03-10T12:05:59.693Z,8.60
2023-03-10T12:08:46.690Z,8.60
2023-03-10T12:11:32.405Z,8.30
2023-03-10T12:14:17.927Z,8.20
2023-03-10T12:17:05.334Z,8.30
2023-03-10T12:20:18.750Z,8.30
2023-03-10T12:23:10.237Z,8.10
2023-03-10T12:25:55.732Z,8.30
2023-03-10T12:28:41.589Z,7.90
2023-03-10T12:31:39.358Z,8.20
2023-03-10T12:34:32.271Z,8.20
2023-03-10T12:37:23.513Z,8.20
2023-03-10T12:40:48.206Z,8.20
2023-03-10T12:43:53.706Z,8.20
2023-03-10T12:46:49.877Z,8.20
2023-03-10T12:49:43.512Z,8.10
2023-03-10T12:52:41.292Z,7.90
2023-03-10T12:55:28.562Z,7.90
2023-03-10T12:58:25.423Z,8.00
2023-03-10T13:01:15.104Z,8.10
2023-03-10T13:04:06.964Z,8.20
2023-03-10T13:06:56.864Z,8.00
2023-03-10T13:09:45.734Z,8.10
2023-03-10T13:12:48.089Z,8.30
2023-03-10T13:15:35.584Z,7.90
2023-03-10T13:18:22.885Z,7.60
2023-03-10T13:21:26.821Z,7.30
2023-03-10T13:24:36.260Z,7.40
2023-03-10T13:27:24.671Z,7.80
2023-03-10T13:30:13.936Z,7.90
2023-03-10T13:33:02.665Z,8.10
2023-03-10T13:35:48.328Z,8.30
2023-03-10T13:38:33.409Z,8.50
2023-03-10T13:41:19.062Z,9.90
2023-03-10T13:44:04.416Z,8.90
2023-03-10T13:47:01.112Z,8.80
2023-03-10T13:49:56.132Z,8.60
2023-03-10T13:52:54.273Z,8.60
2023-03-10T13:55:40.828Z,9.50
2023-03-10T13:58:26.913Z,8.60
2023-03-10T14:01:23.003Z,8.30
2023-03-10T14:04:09.028Z,8.30
2023-03-10T14:07:10.509Z,8.20
2023-03-10T14:10:05.237Z,8.30
2023-03-10T14:12:52.938Z,8.70
2023-03-10T14:15:39.070Z,10.50
2023-03-10T14:18:27.782Z,9.50
2023-03-10T14:21:58.498Z,9.60
2023-03-10T14:24:46.797Z,9.10
2023-03-10T14:27:35.303Z,9.10
2023-03-10T14:30:30.551Z,9.00
2023-03-10T14:33:16.469Z,8.90
2023-03-10T14:36:01.847Z,8.80
2023-03-10T14:38:47.827Z,8.60
2023-03-10T14:41:33.714Z,8.70
2023-03-10T14:44:19.409Z,8.70
2023-03-10T14:47:05.196Z,9.30
2023-03-10T14:49:50.860Z,8.60
2023-03-10T14:52:36.353Z,10.60
2023-03-10T14:55:21.894Z,8.50
2023-03-10T14:58:08.510Z,8.70
2023-03-10T15:00:54.340Z,9.10
2023-03-10T15:03:41.254Z,8.80
2023-03-10T15:06:26.909Z,8.90
2023-03-10T15:09:12.484Z,8.70
2023-03-10T15:11:59.665Z,9.10
2023-03-10T15:14:52.351Z,9.00
2023-03-10T15:17:37.763Z,8.80
2023-03-10T15:20:24.656Z,8.90
2023-03-10T15:23:13.883Z,9.10
2023-03-10T15:26:03.878Z,9.10
2023-03-10T15:28:49.352Z,9.00
2023-03-10T15:31:34.782Z,9.00
2023-03-10T15:34:20.743Z,10.20
2023-03-10T15:37:08.194Z,9.10
2023-03-10T15:39:53.375Z,9.00
2023-03-10T15:42:38.941Z,9.10
2023-03-10T15:45:30.034Z,9.20
2023-03-10T15:48:15.377Z,9.10
2023-03-10T15:51:01.199Z,9.10
2023-03-10T15:53:47.194Z,9.20
2023-03-10T15:56:34.042Z,9.10
2023-03-10T15:59:19.811Z,9.20
2023-03-10T16:02:05.614Z,9.10
2023-03-10T16:04:50.884Z,9.10
2023-03-10T16:07:36.456Z,9.80
2023-03-10T16:10:22.092Z,9.20
2023-03-10T16:13:07.948Z,9.10
2023-03-10T16:15:53.596Z,9.10
2023-03-10T16:18:39.406Z,9.10
2023-03-10T16:21:25.126Z,9.10
2023-03-10T16:24:10.407Z,9.10
2023-03-10T16:26:56.016Z,9.10
2023-03-10T16:29:41.609Z,9.10
2023-03-10T16:32:27.273Z,9.10
2023-03-10T16:35:14.472Z,9.20
2023-03-10T16:38:01.170Z,9.90
2023-03-10T16:40:50.714Z,9.20
2023-03-10T16:43:36.399Z,9.20
2023-03-10T16:46:30.189Z,9.10
2023-03-10T16:49:16.550Z,9.00
2023-03-10T16:52:07.024Z,9.20
2023-03-10T16:54:58.183Z,9.30
2023-03-10T16:57:46.185Z,9.70
2023-03-10T17:00:31.833Z,10.60
2023-03-10T17:03:17.010Z,9.10
2023-03-10T17:06:02.599Z,9.00
2023-03-10T17:08:49.064Z,9.10
2023-03-10T17:11:38.085Z,9.10
2023-03-10T17:14:24.057Z,9.10
2023-03-10T17:17:09.964Z,9.10
2023-03-10T17:19:55.610Z,9.10
2023-03-10T17:22:41.261Z,9.00
2023-03-10T17:25:26.901Z,8.90
2023-03-10T17:28:12.434Z,8.90
2023-03-10T17:30:57.749Z,8.80
2023-03-10T17:33:43.784Z,8.70
2023-03-10T17:36:29.721Z,9.30
2023-03-10T17:39:19.053Z,8.80
2023-03-10T17:42:04.652Z,8.70
2023-03-10T17:44:49.984Z,8.60
2023-03-10T17:47:35.590Z,8.60
2023-03-10T17:50:22.573Z,9.50
2023-03-10T17:53:07.854Z,8.70
2023-03-10T17:55:53.772Z,8.80
2023-03-10T17:58:39.579Z,8.60
2023-03-10T18:01:27.644Z,8.60
2023-03-10T18:04:13.388Z,8.50
2023-03-10T18:06:58.840Z,8.30
2023-03-10T18:09:44.284Z,7.80
2023-03-10T18:12:29.927Z,7.70
2023-03-10T18:15:16.264Z,7.70
2023-03-10T18:18:02.097Z,7.80
2023-03-10T18:20:48.044Z,7.80
2023-03-10T18:23:33.446Z,7.70
2023-03-10T18:26:28.412Z,7.60
2023-03-10T18:29:14.595Z,7.50
2023-03-10T18:32:00.032Z,7.40
2023-03-10T18:34:45.691Z,7.30
2023-03-10T18:37:33.266Z,7.50
2023-03-10T18:40:18.874Z,8.50
2023-03-10T18:43:04.587Z,7.60
2023-03-10T18:45:50.135Z,7.50
2023-03-10T18:48:35.461Z,7.70
2023-03-10T18:51:20.728Z,8.60
2023-03-10T18:54:07.014Z,7.80
2023-03-10T18:56:52.467Z,7.80
2023-03-10T18:59:37.854Z,7.80
2023-03-10T19:02:23.689Z,7.80
2023-03-10T19:05:16.624Z,7.70
2023-03-10T19:08:01.853Z,7.80
2023-03-10T19:10:55.836Z,8.40
2023-03-10T19:13:44.049Z,7.70
2023-03-10T19:16:29.752Z,7.90
2023-03-10T19:19:14.999Z,7.80
2023-03-10T19:22:00.474Z,7.70
2023-03-10T19:24:46.163Z,7.60
2023-03-10T19:27:31.621Z,8.30
2023-03-10T19:30:20.152Z,7.70
2023-03-10T19:33:05.821Z,7.60
2023-03-10T19:36:03.995Z,7.70
2023-03-10T19:38:49.840Z,7.70
2023-03-10T19:41:35.193Z,7.80
2023-03-10T19:44:21.910Z,7.80
2023-03-10T19:47:07.393Z,7.60
2023-03-10T19:49:52.686Z,7.70
2023-03-10T19:52:42.452Z,7.80
2023-03-10T19:55:27.760Z,7.70
2023-03-10T19:58:12.895Z,7.50
2023-03-10T20:00:59.143Z,7.30
2023-03-10T20:03:45.129Z,7.20
2023-03-10T20:06:30.891Z,7.30
2023-03-10T20:09:16.312Z,7.30
2023-03-10T20:12:01.808Z,7.30
2023-03-10T20:14:47.421Z,7.30
2023-03-10T20:17:32.627Z,7.30
2023-03-10T20:20:20.251Z,7.30
2023-03-10T20:23:05.786Z,7.30
2023-03-10T20:25:51.074Z,7.20
2023-03-10T20:28:39.382Z,7.10
2023-03-10T20:31:24.818Z,6.90
2023-03-10T20:34:17.403Z,6.80
2023-03-10T20:37:02.690Z,6.50
2023-03-10T20:39:48.195Z,7.50
2023-03-10T20:42:34.264Z,6.50
2023-03-10T20:45:20.046Z,6.40
2023-03-10T20:48:05.596Z,6.40
2023-03-10T20:50:55.061Z,6.30
2023-03-10T20:53:40.374Z,6.40
2023-03-10T20:56:25.752Z,6.20
2023-03-10T20:59:11.216Z,6.30
2023-03-10T21:01:56.644Z,6.20
2023-03-10T21:04:42.068Z,7.30
2023-03-10T21:07:27.571Z,5.90
2023-03-10T21:10:15.459Z,5.80
2023-03-10T21:13:00.682Z,5.70
2023-03-10T21:15:46.372Z,5.90
2023-03-10T21:18:31.673Z,6.00
2023-03-10T21:21:17.083Z,5.80
2023-03-10T21:24:04.621Z,5.80
2023-03-10T21:26:50.207Z,5.80
2023-03-10T21:29:36.747Z,5.80
2023-03-10T21:32:22.635Z,5.90
2023-03-10T21:35:11.152Z,5.80
2023-03-10T21:37:57.453Z,5.80
2023-03-10T21:40:42.994Z,5.70
2023-03-10T21:43:28.527Z,5.60
2023-03-10T21:46:13.969Z,5.50
2023-03-10T21:48:59.461Z,5.50
2023-03-10T21:51:44.697Z,5.20
2023-03-10T21:54:30.736Z,5.30
2023-03-10T21:57:16.328Z,5.30
2023-03-10T22:00:01.636Z,5.10
2023-03-10T22:02:47.787Z,5.30
2023-03-10T22:05:33.413Z,5.30
2023-03-10T22:08:19.075Z,5.30
2023-03-10T22:11:06.902Z,6.50
2023-03-10T22:13:53.543Z,5.40
2023-03-10T22:16:39.009Z,5.20
2023-03-10T22:19:24.716Z,5.00
2023-03-10T22:22:10.088Z,4.80
2023-03-10T22:24:55.728Z,4.70
2023-03-10T22:27:41.925Z,4.60
2023-03-10T22:30:28.869Z,5.90
2023-03-10T22:33:14.078Z,4.80
2023-03-10T22:36:06.819Z,4.90
2023-03-10T22:38:52.050Z,4.90
2023-03-10T22:41:38.828Z,4.80
2023-03-10T22:44:24.594Z,4.80
2023-03-10T22:47:10.016Z,4.90
2023-03-10T22:49:55.538Z,5.10
2023-03-10T22:52:42.115Z,5.10
2023-03-10T22:55:34.806Z,5.00
2023-03-10T22:58:20.329Z,4.90
2023-03-10T23:01:06.385Z,5.00
2023-03-10T23:03:51.943Z,5.80
2023-03-10T23:06:37.659Z,5.10
2023-03-10T23:09:23.244Z,5.20
2023-03-10T23:12:08.835Z,5.20
2023-03-10T23:14:54.105Z,5.10
2023-03-10T23:17:39.807Z,6.50
2023-03-10T23:20:28.727Z,5.00
2023-03-10T23:23:15.179Z,5.00
2023-03-10T23:26:00.921Z,5.10
2023-03-10T23:28:46.445Z,6.00
2023-03-10T23:31:31.826Z,4.80
2023-03-10T23:34:17.535Z,4.70
2023-03-10T23:37:03.068Z,4.90
2023-03-10T23:39:48.340Z,4.90
2023-03-10T23:42:33.873Z,4.80
2023-03-10T23:45:21.565Z,4.80
2023-03-10T23:48:12.432Z,4.80
2023-03-10T23:50:58.563Z,4.80
2023-03-10T23:53:44.549Z,4.70
2023-03-10T23:56:29.761Z,4.80
2023-03-10T23:59:14.997Z,4.70
